Terminal Aerodrome Forecast
Issued by NWS

Home | Current Version | Previous Version | Text Only | Print | Product List | Glossary On
Versions: 1 2 3 4 5 6 7 8 9 10 11 12 13
000
FTUS42 KFFC 271727
TAFFTY
TAF
KFTY 271727Z 2718/2818 11005KT P6SM VCSH SCT090 BKN150
     FM272000 00000KT P6SM BKN050 OVC150
     FM280200 00000KT 6SM SHRA BR SCT015 OVC045
     FM280800 00000KT 3SM SHRA BR SCT007 OVC015
     FM281000 15003KT 3SM SHRA BR OVC005
     FM281600 20005KT 4SM -SHRA BR OVC005=

USA.gov is the U.S. government's official web portal to all federal, state and local government web resources and services.